sensor_id;sensor_type;location;lat;lon;timestamp;P1;durP1;ratioP1;P2;durP2;ratioP2
3881;SDS011;1956;53.482;10.238;2023-04-15T00:04:55;9.43;;;4.95;;
3881;SDS011;1956;53.482;10.238;2023-04-15T00:09:55;7.40;;;5.90;;
3881;SDS011;1956;53.482;10.238;2023-04-15T00:14:56;8.57;;;6.00;;
3881;SDS011;1956;53.482;10.238;2023-04-15T00:19:57;6.43;;;5.00;;
3881;SDS011;1956;53.482;10.238;2023-04-15T00:24:58;6.77;;;5.60;;
3881;SDS011;1956;53.482;10.238;2023-04-15T00:29:59;9.05;;;5.90;;
3881;SDS011;1956;53.482;10.238;2023-04-15T00:34:59;8.53;;;5.70;;
3881;SDS011;1956;53.482;10.238;2023-04-15T00:40:00;7.87;;;5.70;;
3881;SDS011;1956;53.482;10.238;2023-04-15T00:45:00;6.03;;;5.43;;
3881;SDS011;1956;53.482;10.238;2023-04-15T00:50:00;6.43;;;5.57;;
3881;SDS011;1956;53.482;10.238;2023-04-15T00:55:00;7.17;;;5.47;;
3881;SDS011;1956;53.482;10.238;2023-04-15T01:00:01;6.13;;;5.47;;
3881;SDS011;1956;53.482;10.238;2023-04-15T01:05:03;6.60;;;5.30;;
3881;SDS011;1956;53.482;10.238;2023-04-15T01:10:04;8.40;;;5.70;;
3881;SDS011;1956;53.482;10.238;2023-04-15T01:15:04;8.50;;;5.00;;
3881;SDS011;1956;53.482;10.238;2023-04-15T01:20:05;5.80;;;4.80;;
3881;SDS011;1956;53.482;10.238;2023-04-15T01:25:08;7.53;;;5.90;;
3881;SDS011;1956;53.482;10.238;2023-04-15T01:30:09;7.30;;;5.80;;
3881;SDS011;1956;53.482;10.238;2023-04-15T01:35:10;7.40;;;6.00;;
3881;SDS011;1956;53.482;10.238;2023-04-15T01:40:10;7.23;;;5.87;;
3881;SDS011;1956;53.482;10.238;2023-04-15T01:45:11;7.37;;;5.90;;
3881;SDS011;1956;53.482;10.238;2023-04-15T01:50:12;8.00;;;6.33;;
3881;SDS011;1956;53.482;10.238;2023-04-15T01:55:13;7.47;;;5.60;;
3881;SDS011;1956;53.482;10.238;2023-04-15T02:00:13;12.03;;;7.20;;
3881;SDS011;1956;53.482;10.238;2023-04-15T02:05:13;11.70;;;7.20;;
3881;SDS011;1956;53.482;10.238;2023-04-15T02:10:15;9.20;;;6.60;;
3881;SDS011;1956;53.482;10.238;2023-04-15T02:15:15;12.13;;;7.50;;
3881;SDS011;1956;53.482;10.238;2023-04-15T02:20:16;11.30;;;8.20;;
3881;SDS011;1956;53.482;10.238;2023-04-15T02:25:17;17.20;;;8.87;;
3881;SDS011;1956;53.482;10.238;2023-04-15T02:30:17;17.70;;;10.55;;
3881;SDS011;1956;53.482;10.238;2023-04-15T02:35:17;19.50;;;11.63;;
3881;SDS011;1956;53.482;10.238;2023-04-15T02:40:18;16.63;;;9.90;;
3881;SDS011;1956;53.482;10.238;2023-04-15T02:45:19;21.30;;;11.80;;
3881;SDS011;1956;53.482;10.238;2023-04-15T02:50:22;21.03;;;12.57;;
3881;SDS011;1956;53.482;10.238;2023-04-15T02:55:24;21.40;;;12.60;;
3881;SDS011;1956;53.482;10.238;2023-04-15T03:00:25;29.77;;;14.30;;
3881;SDS011;1956;53.482;10.238;2023-04-15T03:05:25;26.67;;;15.00;;
3881;SDS011;1956;53.482;10.238;2023-04-15T03:10:25;22.53;;;13.97;;
3881;SDS011;1956;53.482;10.238;2023-04-15T03:15:26;30.13;;;16.10;;
3881;SDS011;1956;53.482;10.238;2023-04-15T03:20:26;30.00;;;15.67;;
3881;SDS011;1956;53.482;10.238;2023-04-15T03:25:27;35.30;;;16.70;;
3881;SDS011;1956;53.482;10.238;2023-04-15T03:30:27;31.63;;;15.90;;
3881;SDS011;1956;53.482;10.238;2023-04-15T03:35:27;33.80;;;15.70;;
3881;SDS011;1956;53.482;10.238;2023-04-15T03:40:28;31.13;;;15.20;;
3881;SDS011;1956;53.482;10.238;2023-04-15T03:45:29;24.90;;;14.20;;
3881;SDS011;1956;53.482;10.238;2023-04-15T03:50:29;30.83;;;14.83;;
3881;SDS011;1956;53.482;10.238;2023-04-15T03:55:29;31.07;;;15.40;;
3881;SDS011;1956;53.482;10.238;2023-04-15T04:00:30;26.47;;;14.27;;
3881;SDS011;1956;53.482;10.238;2023-04-15T04:05:30;30.20;;;14.43;;
3881;SDS011;1956;53.482;10.238;2023-04-15T04:10:30;30.57;;;14.97;;
3881;SDS011;1956;53.482;10.238;2023-04-15T04:15:30;28.85;;;14.90;;
3881;SDS011;1956;53.482;10.238;2023-04-15T04:20:31;27.33;;;15.15;;
3881;SDS011;1956;53.482;10.238;2023-04-15T04:25:31;40.97;;;18.38;;
3881;SDS011;1956;53.482;10.238;2023-04-15T04:30:32;44.13;;;21.43;;
3881;SDS011;1956;53.482;10.238;2023-04-15T04:35:32;40.42;;;19.58;;
3881;SDS011;1956;53.482;10.238;2023-04-15T04:40:33;42.30;;;21.27;;
3881;SDS011;1956;53.482;10.238;2023-04-15T04:45:34;58.70;;;23.87;;
3881;SDS011;1956;53.482;10.238;2023-04-15T04:50:34;49.87;;;24.90;;
3881;SDS011;1956;53.482;10.238;2023-04-15T04:55:34;56.43;;;26.00;;
3881;SDS011;1956;53.482;10.238;2023-04-15T05:00:39;58.43;;;27.70;;
3881;SDS011;1956;53.482;10.238;2023-04-15T05:05:39;64.13;;;28.90;;
3881;SDS011;1956;53.482;10.238;2023-04-15T05:10:40;60.10;;;28.53;;
3881;SDS011;1956;53.482;10.238;2023-04-15T05:15:40;71.07;;;30.07;;
3881;SDS011;1956;53.482;10.238;2023-04-15T05:20:42;62.83;;;31.60;;
3881;SDS011;1956;53.482;10.238;2023-04-15T05:25:42;69.17;;;32.50;;
3881;SDS011;1956;53.482;10.238;2023-04-15T05:30:42;66.25;;;33.40;;
3881;SDS011;1956;53.482;10.238;2023-04-15T05:35:43;73.40;;;34.67;;
3881;SDS011;1956;53.482;10.238;2023-04-15T05:40:43;80.60;;;37.80;;
3881;SDS011;1956;53.482;10.238;2023-04-15T05:45:43;79.43;;;37.47;;
3881;SDS011;1956;53.482;10.238;2023-04-15T05:50:43;84.55;;;36.65;;
3881;SDS011;1956;53.482;10.238;2023-04-15T05:55:44;81.33;;;38.07;;
3881;SDS011;1956;53.482;10.238;2023-04-15T06:00:44;75.90;;;37.17;;
3881;SDS011;1956;53.482;10.238;2023-04-15T06:05:45;79.80;;;37.77;;
3881;SDS011;1956;53.482;10.238;2023-04-15T06:10:45;80.60;;;37.65;;
3881;SDS011;1956;53.482;10.238;2023-04-15T06:15:45;80.50;;;38.53;;
3881;SDS011;1956;53.482;10.238;2023-04-15T06:20:46;82.70;;;39.60;;
3881;SDS011;1956;53.482;10.238;2023-04-15T06:25:46;88.55;;;40.50;;
3881;SDS011;1956;53.482;10.238;2023-04-15T06:30:47;85.43;;;40.40;;
3881;SDS011;1956;53.482;10.238;2023-04-15T06:35:47;87.33;;;40.17;;
3881;SDS011;1956;53.482;10.238;2023-04-15T06:40:48;85.20;;;41.10;;
3881;SDS011;1956;53.482;10.238;2023-04-15T06:45:48;86.23;;;38.43;;
3881;SDS011;1956;53.482;10.238;2023-04-15T06:50:49;91.43;;;40.40;;
3881;SDS011;1956;53.482;10.238;2023-04-15T06:55:50;91.32;;;40.53;;
3881;SDS011;1956;53.482;10.238;2023-04-15T07:00:51;87.30;;;42.50;;
3881;SDS011;1956;53.482;10.238;2023-04-15T07:05:51;81.50;;;39.77;;
3881;SDS011;1956;53.482;10.238;2023-04-15T07:10:52;88.70;;;41.90;;
3881;SDS011;1956;53.482;10.238;2023-04-15T07:15:53;94.40;;;41.03;;
3881;SDS011;1956;53.482;10.238;2023-04-15T07:20:53;88.30;;;41.97;;
3881;SDS011;1956;53.482;10.238;2023-04-15T07:25:53;86.77;;;41.33;;
3881;SDS011;1956;53.482;10.238;2023-04-15T07:30:54;86.95;;;42.13;;
3881;SDS011;1956;53.482;10.238;2023-04-15T07:35:56;86.90;;;42.53;;
3881;SDS011;1956;53.482;10.238;2023-04-15T07:40:56;84.60;;;39.78;;
3881;SDS011;1956;53.482;10.238;2023-04-15T07:45:57;90.17;;;43.37;;
3881;SDS011;1956;53.482;10.238;2023-04-15T07:50:57;88.23;;;43.10;;
3881;SDS011;1956;53.482;10.238;2023-04-15T07:55:58;91.67;;;45.23;;
3881;SDS011;1956;53.482;10.238;2023-04-15T08:00:58;90.73;;;43.80;;
3881;SDS011;1956;53.482;10.238;2023-04-15T08:05:58;82.68;;;43.95;;
3881;SDS011;1956;53.482;10.238;2023-04-15T08:10:58;90.23;;;46.00;;
3881;SDS011;1956;53.482;10.238;2023-04-15T08:16:21;87.20;;;43.07;;
3881;SDS011;1956;53.482;10.238;2023-04-15T08:21:21;88.43;;;43.70;;
3881;SDS011;1956;53.482;10.238;2023-04-15T08:26:21;84.93;;;42.50;;
3881;SDS011;1956;53.482;10.238;2023-04-15T08:31:22;90.37;;;43.60;;
3881;SDS011;1956;53.482;10.238;2023-04-15T08:36:22;97.87;;;45.17;;
3881;SDS011;1956;53.482;10.238;2023-04-15T08:41:25;84.20;;;42.97;;
3881;SDS011;1956;53.482;10.238;2023-04-15T08:46:26;80.73;;;43.83;;
3881;SDS011;1956;53.482;10.238;2023-04-15T08:51:27;81.60;;;42.10;;
3881;SDS011;1956;53.482;10.238;2023-04-15T08:56:27;86.00;;;44.87;;
3881;SDS011;1956;53.482;10.238;2023-04-15T09:01:30;84.60;;;40.87;;
3881;SDS011;1956;53.482;10.238;2023-04-15T09:06:31;83.73;;;40.03;;
3881;SDS011;1956;53.482;10.238;2023-04-15T09:11:31;82.43;;;39.03;;
3881;SDS011;1956;53.482;10.238;2023-04-15T09:16:31;80.72;;;38.38;;
3881;SDS011;1956;53.482;10.238;2023-04-15T09:21:56;69.20;;;36.17;;
3881;SDS011;1956;53.482;10.238;2023-04-15T09:26:56;78.07;;;36.90;;
3881;SDS011;1956;53.482;10.238;2023-04-15T09:32:08;67.60;;;33.30;;
3881;SDS011;1956;53.482;10.238;2023-04-15T09:37:08;59.90;;;34.00;;
3881;SDS011;1956;53.482;10.238;2023-04-15T09:42:09;62.63;;;31.07;;
3881;SDS011;1956;53.482;10.238;2023-04-15T09:47:25;48.70;;;29.50;;
3881;SDS011;1956;53.482;10.238;2023-04-15T09:52:26;46.97;;;27.93;;
3881;SDS011;1956;53.482;10.238;2023-04-15T09:57:33;49.87;;;27.60;;
3881;SDS011;1956;53.482;10.238;2023-04-15T10:02:33;43.63;;;26.67;;
3881;SDS011;1956;53.482;10.238;2023-04-15T10:07:34;43.50;;;26.73;;
3881;SDS011;1956;53.482;10.238;2023-04-15T10:12:35;37.63;;;24.15;;
3881;SDS011;1956;53.482;10.238;2023-04-15T10:17:36;37.83;;;25.23;;
3881;SDS011;1956;53.482;10.238;2023-04-15T10:22:37;38.00;;;22.70;;
3881;SDS011;1956;53.482;10.238;2023-04-15T10:27:38;36.93;;;21.87;;
3881;SDS011;1956;53.482;10.238;2023-04-15T10:32:39;27.80;;;20.23;;
3881;SDS011;1956;53.482;10.238;2023-04-15T10:37:40;36.93;;;21.47;;
3881;SDS011;1956;53.482;10.238;2023-04-15T10:42:40;30.90;;;20.13;;
3881;SDS011;1956;53.482;10.238;2023-04-15T10:47:41;36.50;;;20.90;;
3881;SDS011;1956;53.482;10.238;2023-04-15T10:52:42;32.43;;;20.70;;
3881;SDS011;1956;53.482;10.238;2023-04-15T10:57:42;31.93;;;21.10;;
3881;SDS011;1956;53.482;10.238;2023-04-15T11:02:47;30.43;;;19.17;;
3881;SDS011;1956;53.482;10.238;2023-04-15T11:07:54;30.60;;;20.00;;
3881;SDS011;1956;53.482;10.238;2023-04-15T11:12:58;27.17;;;19.10;;
3881;SDS011;1956;53.482;10.238;2023-04-15T11:18:09;23.97;;;17.87;;
3881;SDS011;1956;53.482;10.238;2023-04-15T11:23:10;30.00;;;18.83;;
3881;SDS011;1956;53.482;10.238;2023-04-15T11:28:11;27.33;;;18.80;;
3881;SDS011;1956;53.482;10.238;2023-04-15T11:33:11;25.70;;;18.80;;
3881;SDS011;1956;53.482;10.238;2023-04-15T11:38:13;26.43;;;18.30;;
3881;SDS011;1956;53.482;10.238;2023-04-15T11:43:15;26.30;;;18.20;;
3881;SDS011;1956;53.482;10.238;2023-04-15T11:48:16;25.83;;;17.97;;
3881;SDS011;1956;53.482;10.238;2023-04-15T11:53:16;22.60;;;16.87;;
3881;SDS011;1956;53.482;10.238;2023-04-15T11:58:20;22.87;;;16.57;;
3881;SDS011;1956;53.482;10.238;2023-04-15T12:03:22;23.70;;;17.27;;
3881;SDS011;1956;53.482;10.238;2023-04-15T12:08:23;21.00;;;16.20;;
3881;SDS011;1956;53.482;10.238;2023-04-15T12:13:23;22.20;;;15.13;;
3881;SDS011;1956;53.482;10.238;2023-04-15T12:18:23;19.30;;;13.03;;
3881;SDS011;1956;53.482;10.238;2023-04-15T12:23:24;19.73;;;14.50;;
3881;SDS011;1956;53.482;10.238;2023-04-15T12:28:24;19.03;;;13.37;;
3881;SDS011;1956;53.482;10.238;2023-04-15T12:33:32;15.97;;;14.00;;
3881;SDS011;1956;53.482;10.238;2023-04-15T12:38:32;17.40;;;13.57;;
3881;SDS011;1956;53.482;10.238;2023-04-15T12:43:33;28.77;;;13.73;;
3881;SDS011;1956;53.482;10.238;2023-04-15T12:48:33;17.73;;;13.10;;
3881;SDS011;1956;53.482;10.238;2023-04-15T12:53:33;17.43;;;13.47;;
3881;SDS011;1956;53.482;10.238;2023-04-15T12:58:33;16.93;;;13.43;;
3881;SDS011;1956;53.482;10.238;2023-04-15T13:03:34;17.93;;;13.40;;
3881;SDS011;1956;53.482;10.238;2023-04-15T13:08:34;20.70;;;13.83;;
3881;SDS011;1956;53.482;10.238;2023-04-15T13:13:35;17.80;;;14.40;;
3881;SDS011;1956;53.482;10.238;2023-04-15T13:18:35;22.07;;;14.50;;
3881;SDS011;1956;53.482;10.238;2023-04-15T13:23:36;18.93;;;13.70;;
3881;SDS011;1956;53.482;10.238;2023-04-15T13:28:36;18.58;;;15.00;;
3881;SDS011;1956;53.482;10.238;2023-04-15T13:33:37;19.77;;;14.07;;
3881;SDS011;1956;53.482;10.238;2023-04-15T13:38:37;16.00;;;13.80;;
3881;SDS011;1956;53.482;10.238;2023-04-15T13:43:37;21.80;;;14.13;;
3881;SDS011;1956;53.482;10.238;2023-04-15T13:48:37;18.87;;;13.53;;
3881;SDS011;1956;53.482;10.238;2023-04-15T13:53:38;16.10;;;13.00;;
3881;SDS011;1956;53.482;10.238;2023-04-15T13:58:39;16.93;;;12.17;;
3881;SDS011;1956;53.482;10.238;2023-04-15T14:03:39;14.80;;;12.30;;
3881;SDS011;1956;53.482;10.238;2023-04-15T14:08:40;15.43;;;13.30;;
3881;SDS011;1956;53.482;10.238;2023-04-15T14:13:40;13.47;;;11.87;;
3881;SDS011;1956;53.482;10.238;2023-04-15T14:18:40;12.37;;;9.00;;
3881;SDS011;1956;53.482;10.238;2023-04-15T14:23:42;14.13;;;8.73;;
3881;SDS011;1956;53.482;10.238;2023-04-15T14:28:42;11.20;;;10.00;;
3881;SDS011;1956;53.482;10.238;2023-04-15T14:33:43;12.77;;;9.23;;
3881;SDS011;1956;53.482;10.238;2023-04-15T14:38:44;11.47;;;10.27;;
3881;SDS011;1956;53.482;10.238;2023-04-15T14:43:44;13.48;;;10.43;;
3881;SDS011;1956;53.482;10.238;2023-04-15T14:48:44;13.33;;;9.50;;
3881;SDS011;1956;53.482;10.238;2023-04-15T14:53:45;16.33;;;10.73;;
3881;SDS011;1956;53.482;10.238;2023-04-15T14:58:45;11.10;;;9.67;;
3881;SDS011;1956;53.482;10.238;2023-04-15T15:03:45;12.17;;;10.27;;
3881;SDS011;1956;53.482;10.238;2023-04-15T15:08:46;16.23;;;10.90;;
3881;SDS011;1956;53.482;10.238;2023-04-15T15:13:46;13.80;;;10.20;;
3881;SDS011;1956;53.482;10.238;2023-04-15T15:18:46;13.43;;;10.90;;
3881;SDS011;1956;53.482;10.238;2023-04-15T15:23:46;13.23;;;10.55;;
3881;SDS011;1956;53.482;10.238;2023-04-15T15:28:47;11.47;;;9.00;;
3881;SDS011;1956;53.482;10.238;2023-04-15T15:33:49;16.23;;;11.47;;
3881;SDS011;1956;53.482;10.238;2023-04-15T15:38:52;18.03;;;13.30;;
3881;SDS011;1956;53.482;10.238;2023-04-15T15:43:53;16.70;;;12.50;;
3881;SDS011;1956;53.482;10.238;2023-04-15T15:48:53;17.10;;;11.57;;
3881;SDS011;1956;53.482;10.238;2023-04-15T15:53:53;17.20;;;11.73;;
3881;SDS011;1956;53.482;10.238;2023-04-15T15:58:54;15.83;;;12.67;;
3881;SDS011;1956;53.482;10.238;2023-04-15T16:03:54;22.17;;;13.10;;
3881;SDS011;1956;53.482;10.238;2023-04-15T16:08:54;17.20;;;13.23;;
3881;SDS011;1956;53.482;10.238;2023-04-15T16:13:55;17.23;;;13.53;;
3881;SDS011;1956;53.482;10.238;2023-04-15T16:18:58;16.80;;;12.60;;
3881;SDS011;1956;53.482;10.238;2023-04-15T16:23:58;18.97;;;14.50;;
3881;SDS011;1956;53.482;10.238;2023-04-15T16:28:58;18.90;;;14.35;;
3881;SDS011;1956;53.482;10.238;2023-04-15T16:33:59;19.90;;;13.40;;
3881;SDS011;1956;53.482;10.238;2023-04-15T16:38:59;20.67;;;15.47;;
3881;SDS011;1956;53.482;10.238;2023-04-15T16:44:02;22.50;;;16.20;;
3881;SDS011;1956;53.482;10.238;2023-04-15T16:49:03;22.23;;;15.60;;
3881;SDS011;1956;53.482;10.238;2023-04-15T16:54:03;22.50;;;15.03;;
3881;SDS011;1956;53.482;10.238;2023-04-15T16:59:03;21.20;;;15.83;;
3881;SDS011;1956;53.482;10.238;2023-04-15T17:04:03;21.33;;;15.57;;
3881;SDS011;1956;53.482;10.238;2023-04-15T17:09:04;21.53;;;16.47;;
3881;SDS011;1956;53.482;10.238;2023-04-15T17:14:07;23.33;;;17.33;;
3881;SDS011;1956;53.482;10.238;2023-04-15T17:19:07;27.20;;;18.90;;
3881;SDS011;1956;53.482;10.238;2023-04-15T17:24:08;26.93;;;18.07;;
3881;SDS011;1956;53.482;10.238;2023-04-15T17:29:08;25.30;;;17.50;;
3881;SDS011;1956;53.482;10.238;2023-04-15T17:34:09;23.23;;;17.83;;
3881;SDS011;1956;53.482;10.238;2023-04-15T17:39:09;31.00;;;18.30;;
3881;SDS011;1956;53.482;10.238;2023-04-15T17:44:10;24.83;;;18.90;;
3881;SDS011;1956;53.482;10.238;2023-04-15T17:49:10;22.37;;;16.40;;
3881;SDS011;1956;53.482;10.238;2023-04-15T17:54:10;25.50;;;19.13;;
3881;SDS011;1956;53.482;10.238;2023-04-15T17:59:11;34.20;;;22.90;;
3881;SDS011;1956;53.482;10.238;2023-04-15T18:04:11;30.23;;;20.27;;
3881;SDS011;1956;53.482;10.238;2023-04-15T18:09:11;32.00;;;19.07;;
3881;SDS011;1956;53.482;10.238;2023-04-15T18:14:11;32.33;;;19.23;;
3881;SDS011;1956;53.482;10.238;2023-04-15T18:19:12;33.13;;;19.47;;
3881;SDS011;1956;53.482;10.238;2023-04-15T18:24:12;30.80;;;20.70;;
3881;SDS011;1956;53.482;10.238;2023-04-15T18:29:12;28.43;;;19.70;;
3881;SDS011;1956;53.482;10.238;2023-04-15T18:34:13;29.35;;;20.25;;
3881;SDS011;1956;53.482;10.238;2023-04-15T18:39:13;31.35;;;20.83;;
3881;SDS011;1956;53.482;10.238;2023-04-15T18:44:14;35.13;;;20.53;;
3881;SDS011;1956;53.482;10.238;2023-04-15T18:49:14;31.58;;;21.05;;
3881;SDS011;1956;53.482;10.238;2023-04-15T18:54:14;27.73;;;19.52;;
3881;SDS011;1956;53.482;10.238;2023-04-15T18:59:14;26.60;;;20.98;;
3881;SDS011;1956;53.482;10.238;2023-04-15T19:04:15;36.93;;;22.23;;
3881;SDS011;1956;53.482;10.238;2023-04-15T19:09:15;31.73;;;21.57;;
3881;SDS011;1956;53.482;10.238;2023-04-15T19:14:16;35.70;;;21.97;;
3881;SDS011;1956;53.482;10.238;2023-04-15T19:19:16;27.10;;;21.00;;
3881;SDS011;1956;53.482;10.238;2023-04-15T19:24:16;35.30;;;21.73;;
3881;SDS011;1956;53.482;10.238;2023-04-15T19:29:17;36.60;;;24.10;;
3881;SDS011;1956;53.482;10.238;2023-04-15T19:34:17;38.33;;;23.50;;
3881;SDS011;1956;53.482;10.238;2023-04-15T19:39:17;37.63;;;22.90;;
3881;SDS011;1956;53.482;10.238;2023-04-15T19:44:18;36.50;;;23.43;;
3881;SDS011;1956;53.482;10.238;2023-04-15T19:49:19;39.37;;;23.60;;
3881;SDS011;1956;53.482;10.238;2023-04-15T19:54:19;38.00;;;24.40;;
3881;SDS011;1956;53.482;10.238;2023-04-15T19:59:20;35.37;;;23.00;;
3881;SDS011;1956;53.482;10.238;2023-04-15T20:04:20;40.33;;;23.27;;
3881;SDS011;1956;53.482;10.238;2023-04-15T20:09:21;38.20;;;22.20;;
3881;SDS011;1956;53.482;10.238;2023-04-15T20:14:24;33.80;;;22.23;;
3881;SDS011;1956;53.482;10.238;2023-04-15T20:19:24;36.73;;;22.40;;
3881;SDS011;1956;53.482;10.238;2023-04-15T20:24:25;44.30;;;24.17;;
3881;SDS011;1956;53.482;10.238;2023-04-15T20:29:25;39.20;;;22.85;;
3881;SDS011;1956;53.482;10.238;2023-04-15T20:34:26;38.67;;;24.83;;
3881;SDS011;1956;53.482;10.238;2023-04-15T20:39:26;36.50;;;22.87;;
3881;SDS011;1956;53.482;10.238;2023-04-15T20:44:27;36.67;;;22.75;;
3881;SDS011;1956;53.482;10.238;2023-04-15T20:49:27;38.37;;;21.73;;
3881;SDS011;1956;53.482;10.238;2023-04-15T20:54:27;36.67;;;22.97;;
3881;SDS011;1956;53.482;10.238;2023-04-15T20:59:27;33.07;;;21.50;;
3881;SDS011;1956;53.482;10.238;2023-04-15T21:04:28;36.08;;;22.67;;
3881;SDS011;1956;53.482;10.238;2023-04-15T21:09:28;37.50;;;22.33;;
3881;SDS011;1956;53.482;10.238;2023-04-15T21:14:28;41.15;;;23.50;;
3881;SDS011;1956;53.482;10.238;2023-04-15T21:19:29;40.45;;;22.50;;
3881;SDS011;1956;53.482;10.238;2023-04-15T21:24:29;36.37;;;22.80;;
3881;SDS011;1956;53.482;10.238;2023-04-15T21:29:29;36.43;;;22.70;;
3881;SDS011;1956;53.482;10.238;2023-04-15T21:34:29;38.22;;;22.90;;
3881;SDS011;1956;53.482;10.238;2023-04-15T21:39:30;41.10;;;23.55;;
3881;SDS011;1956;53.482;10.238;2023-04-15T21:44:30;41.20;;;23.93;;
3881;SDS011;1956;53.482;10.238;2023-04-15T21:49:30;43.33;;;24.53;;
3881;SDS011;1956;53.482;10.238;2023-04-15T21:54:31;38.00;;;24.80;;
3881;SDS011;1956;53.482;10.238;2023-04-15T21:59:32;41.73;;;24.70;;
3881;SDS011;1956;53.482;10.238;2023-04-15T22:04:32;36.33;;;23.00;;
3881;SDS011;1956;53.482;10.238;2023-04-15T22:09:32;51.27;;;24.67;;
3881;SDS011;1956;53.482;10.238;2023-04-15T22:14:33;40.83;;;23.30;;
3881;SDS011;1956;53.482;10.238;2023-04-15T22:19:33;33.53;;;22.13;;
3881;SDS011;1956;53.482;10.238;2023-04-15T22:24:33;44.20;;;25.77;;
3881;SDS011;1956;53.482;10.238;2023-04-15T22:29:33;44.93;;;23.50;;
3881;SDS011;1956;53.482;10.238;2023-04-15T22:34:34;36.50;;;23.10;;
3881;SDS011;1956;53.482;10.238;2023-04-15T22:39:34;42.47;;;24.17;;
3881;SDS011;1956;53.482;10.238;2023-04-15T22:44:34;45.93;;;23.83;;
3881;SDS011;1956;53.482;10.238;2023-04-15T22:49:34;41.60;;;23.57;;
3881;SDS011;1956;53.482;10.238;2023-04-15T22:54:35;40.50;;;25.13;;
3881;SDS011;1956;53.482;10.238;2023-04-15T22:59:35;40.17;;;23.30;;
3881;SDS011;1956;53.482;10.238;2023-04-15T23:04:36;44.40;;;24.60;;
3881;SDS011;1956;53.482;10.238;2023-04-15T23:09:36;42.33;;;24.47;;
3881;SDS011;1956;53.482;10.238;2023-04-15T23:14:37;32.50;;;21.23;;
3881;SDS011;1956;53.482;10.238;2023-04-15T23:19:37;46.77;;;22.90;;
3881;SDS011;1956;53.482;10.238;2023-04-15T23:24:37;38.03;;;22.43;;
3881;SDS011;1956;53.482;10.238;2023-04-15T23:29:38;35.00;;;22.40;;
3881;SDS011;1956;53.482;10.238;2023-04-15T23:34:38;42.53;;;23.60;;
3881;SDS011;1956;53.482;10.238;2023-04-15T23:39:38;43.00;;;24.70;;
3881;SDS011;1956;53.482;10.238;2023-04-15T23:44:38;43.90;;;25.07;;
3881;SDS011;1956;53.482;10.238;2023-04-15T23:49:38;45.23;;;24.63;;
3881;SDS011;1956;53.482;10.238;2023-04-15T23:54:39;43.17;;;25.03;;
3881;SDS011;1956;53.482;10.238;2023-04-15T23:59:40;44.72;;;24.38;;
